Time;durP1;ratioP1;P1;durP2;ratioP2;P2;SDS_P1;SDS_P2;PMS_P1;PMS_P2;Temp;Humidity;BMP_temperature;BMP_pressure;BME280_temperature;BME280_humidity;BME280_pressure;Samples;Min_cycle;Max_cycle;Signal;HPM_P1;HPM_P2
2021/12/13 00:00:21;;;;;;;2.20;1.70;;;23.10;34.40;;;;;;5055901;28;20479;-71
2021/12/13 00:02:56;;;;;;;2.55;1.80;;;23.10;34.30;;;;;;5074010;28;20392;-71
2021/12/13 00:05:24;;;;;;;2.30;1.70;;;23.00;34.10;;;;;;5055942;28;20430;-70
2021/12/13 00:08:02;;;;;;;2.07;1.60;;;23.00;34.10;;;;;;5055603;28;20464;-71
2021/12/13 00:10:40;;;;;;;2.28;1.63;;;23.00;34.20;;;;;;5055741;28;20392;-71
2021/12/13 00:13:16;;;;;;;2.35;1.70;;;22.90;34.20;;;;;;5073892;28;20411;-70
2021/12/13 00:15:48;;;;;;;2.13;1.50;;;22.90;34.20;;;;;;5051367;28;20743;-71
2021/12/13 00:18:19;;;;;;;1.90;1.40;;;22.90;34.10;;;;;;5055154;28;20787;-70
2021/12/13 00:20:51;;;;;;;2.58;1.73;;;22.90;34.10;;;;;;5073817;28;20441;-71
2021/12/13 00:23:19;;;;;;;2.33;1.70;;;22.90;34.10;;;;;;5073510;28;20396;-71
2021/12/13 00:25:48;;;;;;;3.28;1.52;;;22.90;34.10;;;;;;5055622;28;20416;-71
2021/12/13 00:28:17;;;;;;;2.70;1.73;;;22.90;34.10;;;;;;5055088;28;20474;-70
2021/12/13 00:31:18;;;;;;;1.90;1.50;;;22.90;34.20;;;;;;5073425;28;20514;-71
2021/12/13 00:34:02;;;;;;;2.05;1.58;;;22.90;34.10;;;;;;5055016;28;20389;-71
2021/12/13 00:36:37;;;;;;;2.20;1.50;;;22.90;34.20;;;;;;5055053;28;20392;-71
2021/12/13 00:39:16;;;;;;;2.07;1.70;;;22.80;34.00;;;;;;5073343;28;20427;-71
2021/12/13 00:41:44;;;;;;;2.33;1.65;;;22.80;34.00;;;;;;5073043;28;20435;-71
2021/12/13 00:44:22;;;;;;;2.58;1.88;;;22.80;34.00;;;;;;5054858;28;20414;-70
2021/12/13 00:46:51;;;;;;;2.20;1.70;;;22.80;34.00;;;;;;5055145;28;20412;-71
2021/12/13 00:49:20;;;;;;;2.08;1.50;;;22.80;34.00;;;;;;5072814;28;21096;-71
2021/12/13 00:51:49;;;;;;;1.92;1.30;;;22.70;33.90;;;;;;5054709;28;20387;-71
2021/12/13 00:54:25;;;;;;;2.08;1.60;;;22.80;34.00;;;;;;5072610;28;20399;-71
2021/12/13 00:56:53;;;;;;;1.92;1.50;;;22.80;34.00;;;;;;5073004;28;20395;-70
2021/12/13 00:59:27;;;;;;;1.90;1.42;;;22.80;33.80;;;;;;5054997;28;20396;-71
2021/12/13 01:02:11;;;;;;;2.10;1.60;;;22.80;33.60;;;;;;5072899;28;20387;-71
2021/12/13 01:05:00;;;;;;;2.60;1.70;;;22.80;33.90;;;;;;5072719;28;20380;-71
2021/12/13 01:07:47;;;;;;;2.13;1.52;;;22.80;33.70;;;;;;5054767;28;20759;-71
2021/12/13 01:10:49;;;;;;;2.00;1.40;;;22.90;33.70;;;;;;5054265;28;20474;-71
2021/12/13 01:13:29;;;;;;;2.10;1.42;;;22.90;33.80;;;;;;5072639;28;20392;-71
2021/12/13 01:16:15;;;;;;;2.10;1.50;;;22.90;33.70;;;;;;5072387;28;20742;-71
2021/12/13 01:19:13;;;;;;;2.80;1.35;;;22.90;33.60;;;;;;5072294;28;20433;-70
2021/12/13 01:21:59;;;;;;;2.33;1.52;;;22.80;33.70;;;;;;5071928;28;20384;-71
2021/12/13 01:25:19;;;;;;;1.70;1.30;;;22.80;33.60;;;;;;5054133;28;20491;-70
2021/12/13 01:27:39;;;;;;;1.75;1.30;;;22.70;33.60;;;;;;5061471;28;20564;-70
2021/12/13 01:30:11;;;;;;;1.65;1.30;;;22.70;33.70;;;;;;5072155;28;20456;-70
2021/12/13 01:32:45;;;;;;;1.55;1.30;;;22.70;33.70;;;;;;5072169;28;20415;-71
2021/12/13 01:35:25;;;;;;;1.80;1.35;;;22.70;33.60;;;;;;5050636;28;20391;-71
2021/12/13 01:37:53;;;;;;;2.28;1.50;;;22.70;33.60;;;;;;5054266;28;20407;-71
2021/12/13 01:40:24;;;;;;;1.80;1.37;;;22.70;33.60;;;;;;5071615;28;20383;-71
2021/12/13 01:43:05;;;;;;;2.00;1.40;;;22.70;33.70;;;;;;5071924;28;20415;-71
2021/12/13 01:45:35;;;;;;;1.52;1.10;;;22.70;33.70;;;;;;5072032;28;20411;-71
2021/12/13 01:48:01;;;;;;;1.73;1.10;;;22.70;33.50;;;;;;5071666;28;20470;-71
2021/12/13 01:50:42;;;;;;;1.60;1.15;;;22.70;33.60;;;;;;5071635;28;20464;-71
2021/12/13 01:53:08;;;;;;;1.80;1.13;;;22.70;33.50;;;;;;5054011;28;20411;-71
2021/12/13 01:55:38;;;;;;;1.50;1.10;;;22.60;33.40;;;;;;5071834;28;20430;-71
2021/12/13 02:01:11;;;;;;;1.50;1.20;;;22.70;33.50;;;;;;5071953;28;20753;-71
2021/12/13 02:03:42;;;;;;;1.50;1.00;;;22.70;33.50;;;;;;5053776;28;20404;-71
2021/12/13 02:06:08;;;;;;;1.65;1.23;;;22.70;33.50;;;;;;5071334;28;20407;-70
2021/12/13 02:08:34;;;;;;;1.75;1.30;;;22.70;33.50;;;;;;5071539;28;20403;-71
2021/12/13 02:11:00;;;;;;;1.40;1.00;;;22.60;33.50;;;;;;5071746;28;20396;-71
2021/12/13 02:13:36;;;;;;;1.50;1.10;;;22.60;33.50;;;;;;5071579;28;20772;-70
2021/12/13 02:18:52;;;;;;;1.40;1.00;;;22.60;33.50;;;;;;5071873;28;20708;-71
2021/12/13 02:21:33;;;;;;;1.50;1.08;;;22.60;33.50;;;;;;5071219;28;20394;-71
2021/12/13 02:24:02;;;;;;;1.40;1.05;;;22.60;33.50;;;;;;5052969;28;20384;-70
2021/12/13 02:26:29;;;;;;;1.48;1.00;;;22.60;34.10;;;;;;5053086;28;20415;-71
2021/12/13 02:29:12;;;;;;;1.55;1.02;;;22.60;33.50;;;;;;5053607;28;20469;-71
2021/12/13 02:31:39;;;;;;;1.70;1.00;;;22.50;33.50;;;;;;5048868;28;20453;-71
2021/12/13 02:34:08;;;;;;;1.42;1.00;;;22.60;33.50;;;;;;5053236;28;20410;-70
2021/12/13 02:37:01;;;;;;;1.52;1.00;;;22.60;33.40;;;;;;5070848;28;20875;-71
2021/12/13 02:39:31;;;;;;;1.23;0.90;;;22.60;33.40;;;;;;5067607;28;20490;-71
2021/12/13 02:41:58;;;;;;;1.50;0.90;;;22.50;33.40;;;;;;5053229;28;20621;-71
2021/12/13 02:44:36;;;;;;;1.40;0.80;;;22.50;33.40;;;;;;5070751;28;20890;-71
2021/12/13 02:47:06;;;;;;;1.60;0.90;;;22.50;33.50;;;;;;5053301;28;20423;-71
2021/12/13 02:49:33;;;;;;;1.60;1.00;;;22.50;33.40;;;;;;5070946;28;20445;-71
2021/12/13 02:52:03;;;;;;;1.80;0.95;;;22.50;33.50;;;;;;5071229;28;20403;-71
2021/12/13 02:54:36;;;;;;;1.20;0.80;;;22.50;33.40;;;;;;5070990;28;20884;-70
2021/12/13 02:57:15;;;;;;;1.38;0.90;;;22.50;33.40;;;;;;5071314;28;20415;-71
2021/12/13 02:59:46;;;;;;;1.25;0.90;;;22.50;33.50;;;;;;5071209;28;20847;-71
2021/12/13 03:02:30;;;;;;;1.30;0.90;;;22.50;33.40;;;;;;5070948;28;20399;-71
2021/12/13 03:04:58;;;;;;;1.47;0.80;;;22.50;33.30;;;;;;5071190;28;20457;-71
2021/12/13 03:07:30;;;;;;;1.00;0.80;;;22.50;33.30;;;;;;5070812;28;20412;-70
2021/12/13 03:09:58;;;;;;;1.35;0.80;;;22.50;33.30;;;;;;5071170;28;20363;-70
2021/12/13 03:12:26;;;;;;;1.10;0.73;;;22.50;33.30;;;;;;5052340;28;20406;-70
2021/12/13 03:15:09;;;;;;;1.10;0.73;;;22.50;33.40;;;;;;5071167;28;20398;-71
2021/12/13 03:17:44;;;;;;;2.20;0.90;;;22.50;33.40;;;;;;5064549;28;20817;-71
2021/12/13 03:20:19;;;;;;;1.67;0.80;;;22.50;33.40;;;;;;5069477;28;20404;-70
2021/12/13 03:23:21;;;;;;;1.90;0.95;;;22.50;33.30;;;;;;5053055;28;20395;-70
2021/12/13 03:26:15;;;;;;;1.40;0.70;;;22.50;33.40;;;;;;5053013;28;20400;-71
2021/12/13 03:29:03;;;;;;;1.27;0.90;;;22.40;33.40;;;;;;5070932;28;20380;-71
2021/12/13 03:31:36;;;;;;;1.38;0.90;;;22.40;33.20;;;;;;5052903;28;20391;-70
2021/12/13 03:34:13;;;;;;;0.95;0.68;;;22.50;33.30;;;;;;5052729;28;20462;-68
2021/12/13 03:36:45;;;;;;;1.48;0.70;;;22.50;33.40;;;;;;5052772;28;20906;-70
2021/12/13 03:39:15;;;;;;;1.20;0.90;;;22.50;33.40;;;;;;5052076;28;20782;-70
2021/12/13 03:41:44;;;;;;;1.20;0.75;;;22.40;33.30;;;;;;5070511;28;20404;-71
2021/12/13 03:44:15;;;;;;;1.20;0.80;;;22.50;33.30;;;;;;5054517;28;20409;-70
2021/12/13 03:46:43;;;;;;;1.35;0.80;;;22.50;33.30;;;;;;5056247;28;20439;-71
2021/12/13 03:49:10;;;;;;;1.33;0.90;;;22.40;33.30;;;;;;5056152;28;20384;-70
2021/12/13 03:51:39;;;;;;;1.05;0.80;;;22.40;33.30;;;;;;5074178;28;20882;-71
2021/12/13 03:54:10;;;;;;;1.02;0.70;;;22.40;33.30;;;;;;5056067;28;20384;-70
2021/12/13 03:56:43;;;;;;;1.00;0.70;;;22.40;33.20;;;;;;5056005;28;20880;-71
2021/12/13 03:59:14;;;;;;;1.00;0.70;;;22.40;33.20;;;;;;5074110;28;20388;-71
2021/12/13 04:02:08;;;;;;;1.33;0.70;;;22.40;33.20;;;;;;5056110;28;20803;-70
2021/12/13 04:04:42;;;;;;;1.10;0.70;;;22.40;33.40;;;;;;5042680;28;20478;-71
2021/12/13 04:07:33;;;;;;;1.60;0.70;;;22.40;33.20;;;;;;5055790;28;20411;-70
2021/12/13 04:10:06;;;;;;;1.23;0.70;;;22.40;33.60;;;;;;5073939;28;20513;-71
2021/12/13 04:12:44;;;;;;;2.58;0.80;;;22.40;33.60;;;;;;5057627;28;20393;-68
2021/12/13 04:15:13;;;;;;;1.73;0.90;;;22.50;33.80;;;;;;5075920;28;20383;-67
2021/12/13 04:17:57;;;;;;;3.30;1.08;;;22.60;33.90;;;;;;5056386;28;20398;-70
2021/12/13 04:20:29;;;;;;;4.10;1.10;;;22.60;34.50;;;;;;5073226;28;20887;-70
2021/12/13 04:23:01;;;;;;;2.17;1.13;;;22.60;34.70;;;;;;5059521;28;20384;-67
2021/12/13 04:25:34;;;;;;;3.88;0.80;;;22.60;34.90;;;;;;5057872;28;20923;-70
2021/12/13 04:28:05;;;;;;;2.42;1.00;;;22.60;35.10;;;;;;5073977;28;20402;-70
2021/12/13 04:30:36;;;;;;;3.13;1.13;;;22.60;34.50;;;;;;5073446;28;20372;-69
2021/12/13 04:33:10;;;;;;;3.08;1.00;;;22.60;34.70;;;;;;5055975;28;20450;-69
2021/12/13 04:35:37;;;;;;;1.77;1.00;;;22.50;34.50;;;;;;5074000;28;20422;-70
2021/12/13 04:38:06;;;;;;;4.90;1.20;;;22.50;34.30;;;;;;5073353;28;20402;-70
2021/12/13 04:40:40;;;;;;;1.87;0.80;;;22.50;34.40;;;;;;5072441;28;20418;-69
2021/12/13 04:43:08;;;;;;;3.65;1.10;;;22.50;34.30;;;;;;5055410;28;20392;-70
2021/12/13 04:45:36;;;;;;;2.92;0.98;;;22.50;34.50;;;;;;5055050;28;20406;-69
2021/12/13 04:48:15;;;;;;;2.58;0.90;;;22.50;34.70;;;;;;5072787;28;20867;-70
2021/12/13 04:51:05;;;;;;;1.88;0.90;;;22.50;34.80;;;;;;5054797;28;20387;-70
2021/12/13 04:53:39;;;;;;;2.92;0.80;;;22.50;34.40;;;;;;5073090;28;20391;-69
2021/12/13 04:56:26;;;;;;;2.20;0.90;;;22.50;34.30;;;;;;5071670;28;20375;-69
2021/12/13 04:58:56;;;;;;;2.88;1.00;;;22.50;34.80;;;;;;5054684;28;20449;-70
2021/12/13 05:01:23;;;;;;;1.10;0.70;;;22.50;34.10;;;;;;5072767;28;20504;-69
2021/12/13 05:03:56;;;;;;;2.53;0.90;;;22.50;34.10;;;;;;5054714;28;20387;-69
2021/12/13 05:06:26;;;;;;;1.63;0.95;;;22.50;34.20;;;;;;5072469;28;20404;-69
2021/12/13 05:08:56;;;;;;;2.00;0.90;;;22.50;34.10;;;;;;5071493;28;20483;-70
2021/12/13 05:11:23;;;;;;;1.88;0.93;;;22.50;34.00;;;;;;5072667;28;20387;-69
2021/12/13 05:13:55;;;;;;;3.03;0.80;;;22.40;33.90;;;;;;5072761;28;20430;-70
2021/12/13 05:16:35;;;;;;;2.55;0.90;;;22.40;33.80;;;;;;5072131;28;20391;-69
2021/12/13 05:19:01;;;;;;;2.70;0.70;;;22.50;33.80;;;;;;5054648;28;20392;-69
2021/12/13 05:21:37;;;;;;;2.70;0.90;;;22.40;33.80;;;;;;5072423;28;20418;-69
2021/12/13 05:24:10;;;;;;;1.50;0.70;;;22.50;33.80;;;;;;5072470;28;20477;-69
2021/12/13 05:26:58;;;;;;;1.83;1.00;;;22.50;33.80;;;;;;5072157;28;20415;-69
2021/12/13 05:29:26;;;;;;;1.80;0.70;;;22.50;33.80;;;;;;5072335;28;20387;-69
2021/12/13 05:31:54;;;;;;;1.48;0.70;;;22.50;33.90;;;;;;5053833;28;20404;-69
2021/12/13 05:34:21;;;;;;;2.00;0.82;;;22.50;33.70;;;;;;5072736;28;20421;-68
2021/12/13 05:36:59;;;;;;;2.10;0.80;;;22.40;33.60;;;;;;5074455;28;20950;-70
2021/12/13 05:39:26;;;;;;;1.92;0.70;;;22.50;33.60;;;;;;5074117;28;20485;-69
2021/12/13 05:42:03;;;;;;;1.40;0.75;;;22.40;33.60;;;;;;5092248;28;20462;-70
2021/12/13 05:44:33;;;;;;;1.90;0.88;;;22.40;33.60;;;;;;5066314;28;20426;-70
2021/12/13 05:47:04;;;;;;;1.88;0.90;;;22.40;33.60;;;;;;5091787;28;20416;-70
2021/12/13 05:49:34;;;;;;;1.45;0.77;;;22.40;33.60;;;;;;5071932;28;20379;-69
2021/12/13 05:52:18;;;;;;;1.38;0.75;;;22.40;33.60;;;;;;5069647;28;20380;-69
2021/12/13 05:54:56;;;;;;;1.30;0.70;;;22.40;33.60;;;;;;5053102;28;20399;-70
2021/12/13 05:57:35;;;;;;;1.33;0.70;;;22.30;33.60;;;;;;5053431;28;20383;-67
2021/12/13 06:00:06;;;;;;;2.42;0.80;;;22.30;33.90;;;;;;5052778;28;20424;-69
2021/12/13 06:02:53;;;;;;;2.08;0.90;;;22.30;34.90;;;;;;5070869;28;20392;-69
2021/12/13 06:05:24;;;;;;;1.40;0.70;;;22.40;34.80;;;;;;5071430;28;20478;-68
2021/12/13 06:08:01;;;;;;;4.15;0.90;;;22.40;34.60;;;;;;5071082;28;20395;-69
2021/12/13 06:10:48;;;;;;;2.97;0.88;;;22.40;34.80;;;;;;5052943;28;20391;-70
2021/12/13 06:13:42;;;;;;;2.17;0.80;;;22.50;34.80;;;;;;5071706;28;20388;-71
2021/12/13 06:16:20;;;;;;;4.32;0.82;;;22.50;35.20;;;;;;5060886;28;20400;-69
2021/12/13 06:18:57;;;;;;;5.75;1.30;;;22.50;36.10;;;;;;5070767;28;20411;-69
2021/12/13 06:21:41;;;;;;;4.95;0.98;;;22.50;36.10;;;;;;5070613;28;20427;-71
2021/12/13 06:24:11;;;;;;;3.30;0.90;;;22.50;35.70;;;;;;5071125;28;20399;-70
2021/12/13 06:26:38;;;;;;;6.15;1.00;;;22.50;35.20;;;;;;5070770;28;20423;-69
2021/12/13 06:29:07;;;;;;;5.72;1.23;;;22.50;35.00;;;;;;5052869;28;20400;-71
2021/12/13 06:31:42;;;;;;;4.57;0.90;;;22.50;34.90;;;;;;5071182;28;20395;-69
2021/12/13 06:34:14;;;;;;;4.63;1.27;;;22.40;34.80;;;;;;5073438;28;20436;-71
2021/12/13 06:36:42;;;;;;;4.22;1.08;;;22.40;34.80;;;;;;5066171;28;20394;-71
2021/12/13 06:39:09;;;;;;;3.10;1.00;;;22.40;34.70;;;;;;5074373;28;20387;-71
2021/12/13 06:41:47;;;;;;;2.45;0.98;;;22.40;34.60;;;;;;5061966;28;20414;-71
2021/12/13 06:44:18;;;;;;;4.22;0.90;;;22.40;34.40;;;;;;5052318;28;20872;-69
2021/12/13 06:46:53;;;;;;;2.47;0.88;;;22.40;34.20;;;;;;5052650;28;20936;-70
2021/12/13 06:49:24;;;;;;;2.13;0.95;;;22.40;34.10;;;;;;5052438;28;20391;-70
2021/12/13 06:52:12;;;;;;;2.40;1.00;;;22.30;34.00;;;;;;5071018;28;20441;-70
2021/12/13 06:54:43;;;;;;;3.75;0.80;;;22.30;33.90;;;;;;5070377;28;20386;-70
2021/12/13 06:57:17;;;;;;;2.75;0.98;;;22.30;33.90;;;;;;5070212;28;20469;-71
2021/12/13 06:59:52;;;;;;;3.00;1.10;;;22.30;33.90;;;;;;5069860;28;20471;-71
2021/12/13 07:02:25;;;;;;;1.25;0.80;;;22.30;33.80;;;;;;5052748;28;20823;-70
2021/12/13 07:05:17;;;;;;;1.98;0.90;;;22.40;33.80;;;;;;5071617;28;20402;-71
2021/12/13 07:07:51;;;;;;;1.45;0.98;;;22.30;33.80;;;;;;5053054;28;20433;-71
2021/12/13 07:10:28;;;;;;;1.70;1.08;;;22.30;33.80;;;;;;5053393;28;20387;-71
2021/12/13 07:13:04;;;;;;;2.60;0.98;;;22.30;33.80;;;;;;5053422;28;20387;-72
2021/12/13 07:15:47;;;;;;;2.45;0.93;;;22.30;33.70;;;;;;5052159;28;20438;-70
2021/12/13 07:18:30;;;;;;;2.00;0.90;;;22.30;33.60;;;;;;5053975;28;20577;-71
2021/12/13 07:21:02;;;;;;;2.05;1.00;;;22.30;33.60;;;;;;5074482;28;20388;-72
2021/12/13 07:23:48;;;;;;;1.60;0.90;;;22.30;33.60;;;;;;5056443;28;20737;-71
2021/12/13 07:26:14;;;;;;;1.77;0.90;;;22.30;33.60;;;;;;5056130;28;20903;-70
2021/12/13 07:28:40;;;;;;;2.35;1.08;;;22.30;33.80;;;;;;5057076;28;20771;-70
2021/12/13 07:31:08;;;;;;;1.52;0.90;;;22.30;33.70;;;;;;5074253;28;20403;-72
2021/12/13 07:33:43;;;;;;;4.88;1.00;;;22.30;33.70;;;;;;5074437;28;20383;-71
2021/12/13 07:36:19;;;;;;;2.15;1.00;;;22.30;33.80;;;;;;5055967;28;20387;-71
2021/12/13 07:38:49;;;;;;;1.80;0.98;;;22.30;33.70;;;;;;5056392;28;20402;-71
2021/12/13 07:41:15;;;;;;;1.67;1.03;;;22.30;33.60;;;;;;5073849;28;20519;-71
2021/12/13 07:43:43;;;;;;;2.90;1.20;;;22.30;33.60;;;;;;5055959;28;20765;-71
2021/12/13 07:46:18;;;;;;;2.30;0.90;;;22.30;33.50;;;;;;5073881;28;20411;-73
2021/12/13 07:48:43;;;;;;;1.60;0.90;;;22.30;33.50;;;;;;5055748;28;20398;-71
2021/12/13 07:51:18;;;;;;;1.80;0.97;;;22.30;33.50;;;;;;5073903;28;20470;-71
2021/12/13 07:53:50;;;;;;;2.47;0.90;;;22.30;33.50;;;;;;5073935;28;20399;-71
2021/12/13 07:56:34;;;;;;;1.70;0.95;;;22.20;33.50;;;;;;5073644;28;20438;-71
2021/12/13 07:59:08;;;;;;;1.83;0.90;;;22.20;33.40;;;;;;5055711;28;20755;-72
2021/12/13 08:01:41;;;;;;;2.63;1.10;;;22.20;33.40;;;;;;5055631;28;20404;-72
2021/12/13 08:04:14;;;;;;;2.10;1.10;;;22.20;33.40;;;;;;5056335;28;20871;-72
2021/12/13 08:07:06;;;;;;;1.73;1.00;;;22.20;33.40;;;;;;5054935;28;20465;-72
2021/12/13 08:09:33;;;;;;;1.40;0.90;;;22.20;33.40;;;;;;5072789;28;20457;-72
2021/12/13 08:12:25;;;;;;;1.48;0.95;;;22.20;33.40;;;;;;5055346;28;20790;-72
2021/12/13 08:14:55;;;;;;;1.80;0.90;;;22.20;33.40;;;;;;5054579;28;20399;-72
2021/12/13 08:17:29;;;;;;;1.25;0.98;;;22.20;33.40;;;;;;5055321;28;20524;-71
2021/12/13 08:20:03;;;;;;;1.23;0.80;;;22.20;33.30;;;;;;5055358;28;20428;-71
2021/12/13 08:22:32;;;;;;;2.30;0.90;;;22.20;33.30;;;;;;5072596;28;20426;-71
2021/12/13 08:25:06;;;;;;;1.40;0.90;;;22.20;33.30;;;;;;5073281;28;20388;-72
2021/12/13 08:27:37;;;;;;;2.25;1.00;;;22.20;33.30;;;;;;5072900;28;20411;-71
2021/12/13 08:30:11;;;;;;;1.60;0.80;;;22.20;33.30;;;;;;5072896;28;20384;-72
2021/12/13 08:32:37;;;;;;;1.95;0.85;;;22.20;33.40;;;;;;5072402;28;20388;-71
2021/12/13 08:35:06;;;;;;;2.07;0.90;;;22.20;33.40;;;;;;5073362;28;20379;-72
2021/12/13 08:37:36;;;;;;;1.60;0.90;;;22.10;33.40;;;;;;5054871;28;20806;-70
2021/12/13 08:40:13;;;;;;;1.75;0.90;;;22.20;33.50;;;;;;5073092;28;20391;-71
2021/12/13 08:42:43;;;;;;;1.60;1.00;;;22.10;33.40;;;;;;5072483;28;20430;-71
2021/12/13 08:45:31;;;;;;;1.60;0.80;;;22.10;33.30;;;;;;5073699;28;20804;-71
2021/12/13 08:48:07;;;;;;;1.40;0.90;;;22.10;33.30;;;;;;5073914;28;20418;-71
2021/12/13 08:50:47;;;;;;;1.20;0.80;;;22.10;33.30;;;;;;5073860;28;20380;-70
2021/12/13 08:53:27;;;;;;;1.77;1.10;;;22.10;33.30;;;;;;5075075;28;20934;-71
2021/12/13 08:56:00;;;;;;;2.08;0.93;;;22.10;33.20;;;;;;5072838;28;20382;-71
2021/12/13 08:58:26;;;;;;;1.85;1.20;;;22.10;33.20;;;;;;5080376;28;20719;-72
2021/12/13 09:01:09;;;;;;;1.50;0.80;;;22.10;33.20;;;;;;5093825;28;20377;-71
2021/12/13 09:03:47;;;;;;;1.42;1.00;;;22.10;33.20;;;;;;5093506;28;20394;-72
2021/12/13 09:06:19;;;;;;;2.72;1.00;;;22.10;33.30;;;;;;5092593;28;20468;-72
2021/12/13 09:09:04;;;;;;;1.90;0.90;;;22.10;33.20;;;;;;5092417;28;20798;-71
2021/12/13 09:11:57;;;;;;;2.22;0.90;;;22.10;33.20;;;;;;5092303;28;20476;-71
2021/12/13 09:14:25;;;;;;;2.20;0.90;;;22.10;33.40;;;;;;5085761;28;20403;-71
2021/12/13 09:17:10;;;;;;;2.92;1.55;;;22.10;33.90;;;;;;5071307;28;20405;-71
2021/12/13 09:19:48;;;;;;;2.55;0.90;;;22.10;33.50;;;;;;5052664;28;20400;-71
2021/12/13 09:22:19;;;;;;;2.78;1.27;;;22.20;34.10;;;;;;5055538;28;20388;-71
2021/12/13 09:24:51;;;;;;;7.32;1.30;;;22.20;34.80;;;;;;5071026;28;20399;-72
2021/12/13 09:27:22;;;;;;;3.67;1.50;;;22.20;34.80;;;;;;5053835;28;20424;-71
2021/12/13 09:29:56;;;;;;;4.60;1.38;;;22.20;35.20;;;;;;5072110;28;20410;-71
2021/12/13 09:32:24;;;;;;;4.80;1.42;;;22.20;35.10;;;;;;5071600;28;20856;-71
2021/12/13 09:35:12;;;;;;;5.82;1.80;;;22.30;35.00;;;;;;5071807;28;20390;-71
2021/12/13 09:37:38;;;;;;;4.10;1.42;;;22.30;34.90;;;;;;5071107;28;20453;-71
2021/12/13 09:40:04;;;;;;;3.67;1.50;;;22.30;34.40;;;;;;5071613;28;20419;-70
2021/12/13 09:42:42;;;;;;;5.38;1.63;;;22.30;34.70;;;;;;5069771;28;20492;-70
2021/12/13 09:45:09;;;;;;;4.30;1.60;;;22.30;35.30;;;;;;5062962;28;20426;-70
2021/12/13 09:47:38;;;;;;;4.55;1.40;;;22.30;35.20;;;;;;5059776;28;20413;-70
2021/12/13 09:50:10;;;;;;;3.58;1.30;;;22.40;35.20;;;;;;5053181;28;20387;-70
2021/12/13 09:52:38;;;;;;;3.30;1.20;;;22.40;35.80;;;;;;5068012;28;20399;-70
2021/12/13 09:55:27;;;;;;;3.30;1.30;;;22.40;35.20;;;;;;5060401;28;20399;-70
2021/12/13 09:58:03;;;;;;;4.38;1.20;;;22.40;35.10;;;;;;5039524;28;20405;-70
2021/12/13 10:00:38;;;;;;;3.35;1.25;;;22.40;35.00;;;;;;5070630;28;20379;-69
2021/12/13 10:03:08;;;;;;;3.20;1.10;;;22.30;34.70;;;;;;5069464;28;20388;-70
2021/12/13 10:05:41;;;;;;;2.20;1.10;;;22.30;34.70;;;;;;5070854;28;20448;-70
2021/12/13 10:08:11;;;;;;;2.03;1.03;;;22.40;34.60;;;;;;5071065;28;20470;-69
2021/12/13 10:10:48;;;;;;;3.45;1.30;;;22.40;34.60;;;;;;5067507;28;20418;-69
2021/12/13 10:13:19;;;;;;;3.20;1.00;;;22.40;34.60;;;;;;5070841;28;20879;-69
2021/12/13 10:15:53;;;;;;;2.42;1.10;;;22.30;34.50;;;;;;5070832;28;20896;-69
2021/12/13 10:18:23;;;;;;;3.30;1.23;;;22.30;34.40;;;;;;5067089;28;20454;-70
2021/12/13 10:20:56;;;;;;;2.47;1.30;;;22.30;34.40;;;;;;5059438;28;20461;-69
2021/12/13 10:23:28;;;;;;;2.22;1.20;;;22.30;34.40;;;;;;5068687;28;20376;-70
2021/12/13 10:25:58;;;;;;;2.15;1.30;;;22.30;34.50;;;;;;5070389;28;20884;-70
2021/12/13 10:28:32;;;;;;;3.30;1.25;;;22.30;34.50;;;;;;5070179;28;20483;-70
2021/12/13 10:31:18;;;;;;;1.80;1.20;;;22.30;34.30;;;;;;5050643;28;21159;-69
2021/12/13 10:33:44;;;;;;;3.17;1.35;;;22.30;34.30;;;;;;5070876;28;20411;-69
2021/12/13 10:36:10;;;;;;;3.50;1.33;;;22.30;34.20;;;;;;5069844;28;20387;-70
2021/12/13 10:38:41;;;;;;;2.30;1.00;;;22.30;34.20;;;;;;5066966;28;20424;-70
2021/12/13 10:41:16;;;;;;;1.55;1.00;;;22.30;34.20;;;;;;5070080;28;20429;-69
2021/12/13 10:43:47;;;;;;;2.00;1.37;;;22.30;34.20;;;;;;5065387;28;20986;-70
2021/12/13 10:46:18;;;;;;;3.30;1.20;;;22.30;34.20;;;;;;5069981;28;20418;-70
2021/12/13 10:48:47;;;;;;;1.52;1.08;;;22.30;34.20;;;;;;5067102;28;20786;-70
2021/12/13 10:51:21;;;;;;;1.90;1.20;;;22.30;34.10;;;;;;5051262;28;20479;-70
2021/12/13 10:53:48;;;;;;;1.90;1.30;;;22.30;34.10;;;;;;5070392;28;20437;-70
2021/12/13 10:56:26;;;;;;;2.95;1.27;;;22.30;34.10;;;;;;5074291;28;20453;-70
2021/12/13 10:58:55;;;;;;;1.92;1.02;;;22.30;34.10;;;;;;5072978;28;20383;-69
2021/12/13 11:01:24;;;;;;;2.83;1.20;;;22.30;34.00;;;;;;5071434;28;20874;-69
2021/12/13 11:03:53;;;;;;;2.37;1.20;;;22.30;34.00;;;;;;5063705;28;20392;-70
2021/12/13 11:06:20;;;;;;;2.50;1.30;;;22.30;33.90;;;;;;5055694;28;20431;-70
2021/12/13 11:08:45;;;;;;;1.67;1.00;;;22.30;33.90;;;;;;5055536;28;20444;-69
2021/12/13 11:11:29;;;;;;;1.98;1.10;;;22.40;34.00;;;;;;5074038;28;20402;-70
2021/12/13 11:13:58;;;;;;;2.50;1.10;;;22.30;33.90;;;;;;5073305;28;20442;-69
2021/12/13 11:16:30;;;;;;;1.63;0.97;;;22.30;33.80;;;;;;5062412;28;20500;-70
2021/12/13 11:18:57;;;;;;;2.00;1.00;;;22.30;33.80;;;;;;5062585;28;20377;-70
2021/12/13 11:21:32;;;;;;;1.50;1.05;;;22.40;33.80;;;;;;5055566;28;20392;-70
2021/12/13 11:23:58;;;;;;;2.27;1.00;;;22.40;33.80;;;;;;5073553;28;20470;-70
2021/12/13 11:26:29;;;;;;;2.13;1.05;;;22.30;33.80;;;;;;5073809;28;20498;-70
2021/12/13 11:28:55;;;;;;;1.80;1.00;;;22.30;33.80;;;;;;5074085;28;20496;-70
2021/12/13 11:31:30;;;;;;;1.48;0.95;;;22.30;33.80;;;;;;5073872;28;20388;-70
2021/12/13 11:34:00;;;;;;;2.70;1.08;;;22.30;33.90;;;;;;5073926;28;20798;-70
2021/12/13 11:37:03;;;;;;;2.15;1.00;;;22.30;33.80;;;;;;5055973;28;20396;-70
2021/12/13 11:39:59;;;;;;;2.05;1.13;;;22.30;33.70;;;;;;5073755;28;20379;-70
2021/12/13 11:42:40;;;;;;;2.17;1.00;;;22.40;33.80;;;;;;5073743;28;20411;-70
2021/12/13 11:45:09;;;;;;;1.92;1.10;;;22.30;33.80;;;;;;5073714;28;20399;-70
2021/12/13 11:47:40;;;;;;;2.38;1.20;;;22.30;33.80;;;;;;5073334;28;20414;-70
2021/12/13 11:50:43;;;;;;;2.00;1.13;;;22.40;33.80;;;;;;5073810;28;20394;-70
2021/12/13 11:53:37;;;;;;;1.70;1.00;;;22.40;33.80;;;;;;5073588;28;20456;-70
2021/12/13 11:56:27;;;;;;;2.33;1.05;;;22.30;33.70;;;;;;5073946;28;20490;-71
2021/12/13 11:59:30;;;;;;;1.95;1.15;;;22.30;33.70;;;;;;5055937;28;20907;-70
2021/12/13 12:02:02;;;;;;;1.98;1.10;;;22.30;33.70;;;;;;5073560;28;20398;-70
2021/12/13 12:05:06;;;;;;;1.90;1.13;;;22.40;33.70;;;;;;5072204;28;20384;-70
2021/12/13 12:07:42;;;;;;;2.88;1.20;;;22.30;33.70;;;;;;5055099;28;20564;-70
2021/12/13 12:10:25;;;;;;;3.80;1.08;;;22.30;33.70;;;;;;5055507;28;20466;-70
2021/12/13 12:13:26;;;;;;;2.20;1.20;;;22.30;33.60;;;;;;5054944;28;20399;-70
2021/12/13 12:15:58;;;;;;;1.73;1.07;;;22.40;33.70;;;;;;5054422;28;20439;-70
2021/12/13 12:18:25;;;;;;;1.70;0.90;;;22.30;33.60;;;;;;5071320;28;20392;-70
2021/12/13 12:21:29;;;;;;;1.70;1.08;;;22.40;33.70;;;;;;5072654;28;20392;-71
2021/12/13 12:23:55;;;;;;;2.83;1.10;;;22.30;33.60;;;;;;5055185;28;20479;-70
2021/12/13 12:26:22;;;;;;;1.60;1.00;;;22.30;33.60;;;;;;5073032;28;20415;-69
2021/12/13 12:28:49;;;;;;;1.70;1.20;;;22.40;33.80;;;;;;5072632;28;20437;-69
2021/12/13 12:31:16;;;;;;;2.70;1.20;;;22.40;33.80;;;;;;5054439;28;20751;-70
2021/12/13 12:33:42;;;;;;;2.25;1.10;;;22.40;33.80;;;;;;5072987;28;20397;-70
2021/12/13 12:36:40;;;;;;;2.07;1.10;;;22.40;33.90;;;;;;5073093;28;20399;-69
2021/12/13 12:39:46;;;;;;;2.28;1.20;;;22.30;33.90;;;;;;5072847;28;20419;-70
2021/12/13 12:42:37;;;;;;;2.42;1.10;;;22.40;33.90;;;;;;5072678;28;20399;-69
2021/12/13 12:45:17;;;;;;;1.80;1.10;;;22.40;33.80;;;;;;5072335;28;20466;-69
2021/12/13 12:47:46;;;;;;;2.90;1.23;;;22.40;33.70;;;;;;5072761;28;20407;-70
2021/12/13 12:50:17;;;;;;;2.20;1.10;;;22.40;33.70;;;;;;5072654;28;20380;-70
2021/12/13 12:53:08;;;;;;;2.47;1.20;;;22.40;33.70;;;;;;5054512;28;20415;-70
2021/12/13 12:55:45;;;;;;;2.78;1.10;;;22.40;33.70;;;;;;5060871;28;20466;-71
2021/12/13 12:58:16;;;;;;;2.90;1.10;;;22.30;33.60;;;;;;5072182;28;20399;-71
2021/12/13 13:00:43;;;;;;;3.08;1.30;;;22.40;34.20;;;;;;5051653;28;20390;-70
2021/12/13 13:03:34;;;;;;;3.78;1.20;;;22.40;34.10;;;;;;5070386;28;21016;-70
2021/12/13 13:06:09;;;;;;;3.88;1.17;;;22.40;34.20;;;;;;5080612;28;20430;-70
2021/12/13 13:08:40;;;;;;;3.40;1.40;;;22.40;34.40;;;;;;5092519;28;20397;-70
2021/12/13 13:13:56;;;;;;;3.45;1.23;;;22.40;34.40;;;;;;5092649;28;20448;-70
2021/12/13 13:16:33;;;;;;;2.50;1.48;;;22.40;34.20;;;;;;5072410;28;20727;-70
2021/12/13 13:18:59;;;;;;;3.90;1.40;;;22.40;34.20;;;;;;5090709;28;20409;-71
2021/12/13 13:21:25;;;;;;;3.80;1.25;;;22.40;34.20;;;;;;5065800;28;20899;-71
2021/12/13 13:23:59;;;;;;;2.67;1.30;;;22.40;34.10;;;;;;5053468;28;20392;-70
2021/12/13 13:26:28;;;;;;;2.05;1.20;;;22.40;34.00;;;;;;5053827;28;20516;-70
2021/12/13 13:28:57;;;;;;;2.30;1.30;;;22.40;34.10;;;;;;5077534;28;20410;-70
2021/12/13 13:31:36;;;;;;;2.53;1.20;;;22.40;34.10;;;;;;5046239;28;20800;-70
2021/12/13 13:34:04;;;;;;;2.70;1.20;;;22.40;33.90;;;;;;5069125;28;20443;-70
2021/12/13 13:36:37;;;;;;;3.60;1.20;;;22.40;33.80;;;;;;5053581;28;20392;-69